Time;durP1;ratioP1;P1;durP2;ratioP2;P2;SDS_P1;SDS_P2;PMS_P1;PMS_P2;Temp;Humidity;BMP_temperature;BMP_pressure;BME280_temperature;BME280_humidity;BME280_pressure;Samples;Min_cycle;Max_cycle;Signal;HPM_P1;HPM_P2
2024/03/03 00:00:42;;;;;;;78.40;73.60;;;7.60;99.90;;;;;;5050449;28;20037;-72
2024/03/03 00:03:08;;;;;;;78.93;73.95;;;7.50;99.90;;;;;;5051728;28;20033;-72
2024/03/03 00:05:35;;;;;;;89.80;84.30;;;7.50;99.90;;;;;;5053231;28;20032;-72
2024/03/03 00:08:01;;;;;;;88.75;83.03;;;7.40;99.90;;;;;;5039458;28;20480;-72
2024/03/03 00:10:27;;;;;;;80.32;75.38;;;7.40;99.90;;;;;;5046416;28;20052;-73
2024/03/03 00:12:53;;;;;;;81.82;76.72;;;7.40;99.90;;;;;;5054813;28;20055;-72
2024/03/03 00:15:19;;;;;;;78.53;73.35;;;7.40;99.90;;;;;;5053149;28;20036;-73
2024/03/03 00:17:45;;;;;;;74.68;69.47;;;7.40;99.90;;;;;;5049865;28;20386;-73
2024/03/03 00:20:12;;;;;;;82.28;77.03;;;7.40;99.90;;;;;;5054156;28;20021;-72
2024/03/03 00:22:38;;;;;;;72.70;67.88;;;7.30;99.90;;;;;;5054355;28;20029;-73
2024/03/03 00:25:04;;;;;;;74.53;70.03;;;7.30;99.90;;;;;;5055281;28;20025;-72
2024/03/03 00:27:30;;;;;;;98.93;93.13;;;7.30;99.90;;;;;;5054216;28;20041;-72
2024/03/03 00:29:56;;;;;;;104.70;98.28;;;7.40;99.90;;;;;;5044229;28;20041;-73
2024/03/03 00:32:23;;;;;;;93.40;87.75;;;7.30;99.90;;;;;;5050189;28;20060;-73
2024/03/03 00:34:49;;;;;;;79.57;74.63;;;7.30;99.90;;;;;;5043293;28;20040;-72
2024/03/03 00:37:18;;;;;;;77.88;73.10;;;7.30;99.90;;;;;;5053829;28;20464;-72
2024/03/03 00:39:45;;;;;;;72.10;67.67;;;7.30;99.90;;;;;;5045538;28;20033;-72
2024/03/03 00:42:11;;;;;;;100.13;93.50;;;7.30;99.90;;;;;;5053461;28;20044;-71
2024/03/03 00:44:37;;;;;;;103.97;97.43;;;7.30;99.90;;;;;;5053427;28;20033;-72
2024/03/03 00:47:03;;;;;;;110.27;103.37;;;7.30;99.90;;;;;;5053261;28;20044;-72
2024/03/03 00:49:29;;;;;;;94.25;88.35;;;7.20;99.90;;;;;;5053521;28;20036;-72
2024/03/03 00:51:55;;;;;;;110.00;103.37;;;7.20;99.90;;;;;;5039093;28;20033;-72
2024/03/03 00:54:21;;;;;;;84.75;78.93;;;7.20;99.90;;;;;;5034826;28;20025;-73
2024/03/03 00:56:48;;;;;;;90.10;84.43;;;7.20;99.90;;;;;;5047135;28;20040;-73
2024/03/03 00:59:14;;;;;;;76.00;70.87;;;7.20;99.90;;;;;;5054600;28;20036;-72
2024/03/03 01:01:40;;;;;;;76.63;71.72;;;7.10;99.90;;;;;;5053186;28;20037;-72
2024/03/03 01:04:06;;;;;;;81.70;76.55;;;7.10;99.90;;;;;;5053984;28;20376;-72
2024/03/03 01:06:32;;;;;;;82.30;77.03;;;7.10;99.90;;;;;;5044223;28;20049;-72
2024/03/03 01:08:59;;;;;;;81.07;75.85;;;7.10;99.90;;;;;;5033911;28;20037;-73
2024/03/03 01:11:25;;;;;;;81.72;76.47;;;7.00;99.90;;;;;;5044222;28;20045;-72
2024/03/03 01:13:51;;;;;;;83.80;78.47;;;7.00;99.90;;;;;;5033001;28;20379;-72
2024/03/03 01:16:17;;;;;;;97.23;91.17;;;7.00;99.90;;;;;;5039477;28;20044;-73
2024/03/03 01:18:43;;;;;;;107.93;101.53;;;7.00;99.90;;;;;;5052393;28;20056;-72
2024/03/03 01:21:09;;;;;;;100.57;94.20;;;7.00;99.90;;;;;;5051110;28;20037;-72
2024/03/03 01:23:35;;;;;;;112.00;105.13;;;7.00;99.90;;;;;;5054206;28;20036;-72
2024/03/03 01:26:01;;;;;;;106.67;99.97;;;7.00;99.90;;;;;;5053224;28;20048;-73
2024/03/03 01:28:27;;;;;;;119.82;112.70;;;7.00;99.90;;;;;;5046188;28;20421;-72
2024/03/03 01:30:53;;;;;;;128.25;120.32;;;7.00;99.90;;;;;;5052087;28;20490;-72
2024/03/03 01:33:19;;;;;;;101.82;95.32;;;7.00;99.90;;;;;;5052681;28;20048;-72
2024/03/03 01:35:46;;;;;;;120.40;112.85;;;7.10;99.90;;;;;;5041741;28;20025;-72
2024/03/03 01:38:12;;;;;;;105.33;98.97;;;7.00;99.90;;;;;;5053001;28;20471;-72
2024/03/03 01:40:38;;;;;;;103.30;96.87;;;7.00;99.90;;;;;;5051836;28;20037;-73
2024/03/03 01:43:07;;;;;;;67.43;62.73;;;7.00;99.90;;;;;;5052253;28;20108;-72
2024/03/03 01:45:33;;;;;;;76.20;71.40;;;7.00;99.90;;;;;;5040678;28;20403;-72
2024/03/03 01:47:59;;;;;;;77.25;72.30;;;7.00;99.90;;;;;;5040812;28;20029;-72
2024/03/03 01:50:25;;;;;;;83.73;78.33;;;7.00;99.90;;;;;;5041760;28;20048;-72
2024/03/03 01:52:51;;;;;;;80.17;75.03;;;7.00;99.90;;;;;;5036585;28;20045;-72
2024/03/03 01:55:19;;;;;;;85.63;80.30;;;7.00;99.90;;;;;;5033271;28;20017;-73
2024/03/03 01:57:46;;;;;;;71.63;67.07;;;6.90;99.90;;;;;;5052222;28;20036;-72
2024/03/03 02:00:13;;;;;;;77.97;73.13;;;6.90;99.90;;;;;;5042587;28;20025;-73
2024/03/03 02:02:39;;;;;;;97.33;91.60;;;6.90;99.90;;;;;;5052749;28;20037;-72
2024/03/03 02:05:07;;;;;;;77.83;73.03;;;6.90;99.90;;;;;;5053939;28;20387;-73
2024/03/03 02:07:33;;;;;;;81.13;76.27;;;6.80;99.90;;;;;;5052922;28;20052;-72
2024/03/03 02:09:59;;;;;;;85.10;80.03;;;6.80;99.90;;;;;;5048045;28;20030;-72
2024/03/03 02:12:27;;;;;;;94.27;88.77;;;6.80;99.90;;;;;;5046874;28;20467;-72
2024/03/03 02:14:54;;;;;;;88.00;82.43;;;6.80;99.90;;;;;;5049861;28;20036;-72
2024/03/03 02:17:20;;;;;;;85.70;80.33;;;6.80;99.90;;;;;;5035847;28;20034;-72
2024/03/03 02:19:46;;;;;;;70.77;66.33;;;6.80;99.90;;;;;;5032717;28;20036;-72
2024/03/03 02:22:12;;;;;;;78.17;72.97;;;6.70;99.90;;;;;;5048920;28;20032;-73
2024/03/03 02:24:38;;;;;;;75.30;70.30;;;6.70;99.90;;;;;;5050268;28;20040;-72
2024/03/03 02:27:05;;;;;;;101.67;95.70;;;6.70;99.90;;;;;;5045393;28;20040;-73
2024/03/03 02:29:31;;;;;;;104.55;98.45;;;6.80;99.90;;;;;;5052378;28;20037;-72
2024/03/03 02:31:57;;;;;;;82.70;77.37;;;6.80;99.90;;;;;;5051536;28;20029;-72
2024/03/03 02:34:25;;;;;;;77.30;72.40;;;6.80;99.90;;;;;;5040630;28;20021;-73
2024/03/03 02:36:51;;;;;;;101.10;94.88;;;6.80;99.90;;;;;;5050179;28;20399;-73
2024/03/03 02:39:17;;;;;;;99.33;93.40;;;6.80;99.90;;;;;;5045486;28;20025;-72
2024/03/03 02:41:43;;;;;;;99.07;92.93;;;6.80;99.90;;;;;;5047369;28;20037;-72
2024/03/03 02:44:09;;;;;;;104.72;98.55;;;6.80;99.90;;;;;;5052006;28;20045;-72
2024/03/03 02:46:35;;;;;;;114.88;107.90;;;6.80;99.90;;;;;;5043743;28;20045;-72
2024/03/03 02:49:03;;;;;;;98.10;92.30;;;6.80;99.90;;;;;;5050143;28;20059;-73
2024/03/03 02:51:29;;;;;;;95.83;90.23;;;6.80;99.90;;;;;;5050517;28;20045;-72
2024/03/03 02:53:55;;;;;;;98.97;93.17;;;6.80;99.90;;;;;;5048541;28;20028;-72
2024/03/03 02:56:22;;;;;;;91.57;86.30;;;6.90;99.90;;;;;;5047450;28;20037;-72
2024/03/03 02:58:48;;;;;;;131.90;124.13;;;6.90;99.90;;;;;;5042953;28;20033;-72
2024/03/03 03:01:14;;;;;;;112.40;105.93;;;6.90;99.90;;;;;;5050880;28;20040;-72
2024/03/03 03:03:40;;;;;;;121.23;114.40;;;6.90;99.90;;;;;;5043776;28;20037;-72
2024/03/03 03:06:10;;;;;;;109.13;102.83;;;7.00;99.90;;;;;;5038501;28;20048;-73
2024/03/03 03:08:36;;;;;;;89.30;84.33;;;6.90;99.90;;;;;;5038660;28;20033;-72
2024/03/03 03:11:02;;;;;;;80.93;76.03;;;6.90;99.90;;;;;;5043064;28;20044;-72
2024/03/03 03:13:28;;;;;;;84.93;79.87;;;6.90;99.90;;;;;;5048894;28;20036;-73
2024/03/03 03:15:54;;;;;;;77.25;72.50;;;7.00;99.90;;;;;;5043293;28;20064;-72
2024/03/03 03:18:20;;;;;;;83.90;78.60;;;7.00;99.90;;;;;;5053169;28;20029;-72
2024/03/03 03:20:47;;;;;;;75.47;71.07;;;6.90;99.90;;;;;;5062664;28;20025;-72
2024/03/03 03:23:13;;;;;;;87.40;82.33;;;6.90;99.90;;;;;;5047331;28;20025;-72
2024/03/03 03:25:39;;;;;;;73.90;69.63;;;6.90;99.90;;;;;;5033946;28;20038;-72
2024/03/03 03:28:05;;;;;;;79.13;74.55;;;6.90;99.90;;;;;;5032328;28;20762;-72
2024/03/03 03:30:31;;;;;;;77.65;72.95;;;6.90;99.90;;;;;;5034801;28;20040;-72
2024/03/03 03:32:57;;;;;;;82.43;77.25;;;6.90;99.90;;;;;;5048912;28;20036;-73
2024/03/03 03:35:24;;;;;;;70.13;65.90;;;6.90;99.90;;;;;;5048293;28;20063;-72
2024/03/03 03:37:50;;;;;;;58.00;54.40;;;6.90;99.90;;;;;;5041743;28;20037;-72
2024/03/03 03:40:16;;;;;;;63.37;59.53;;;6.90;99.90;;;;;;5051811;28;20033;-72
2024/03/03 03:42:43;;;;;;;57.27;53.63;;;6.80;99.90;;;;;;5055183;28;20049;-72
2024/03/03 03:45:09;;;;;;;55.67;52.40;;;6.90;99.90;;;;;;5054799;28;20592;-73
2024/03/03 03:47:35;;;;;;;54.15;50.83;;;6.90;99.90;;;;;;5052992;28;20045;-72
2024/03/03 03:50:01;;;;;;;69.07;64.93;;;6.90;99.90;;;;;;5050646;28;20041;-72
2024/03/03 03:52:27;;;;;;;67.53;63.70;;;6.90;99.90;;;;;;5054555;28;20044;-72
2024/03/03 03:54:53;;;;;;;55.23;51.73;;;6.90;99.90;;;;;;5054612;28;20039;-72
2024/03/03 03:57:20;;;;;;;81.18;76.35;;;6.90;99.90;;;;;;5055601;28;20041;-73
2024/03/03 03:59:46;;;;;;;71.00;66.67;;;6.80;99.90;;;;;;5055251;28;20033;-72
2024/03/03 04:02:12;;;;;;;75.57;71.17;;;6.90;99.90;;;;;;5047517;28;20503;-72
2024/03/03 04:04:38;;;;;;;70.50;66.33;;;6.80;99.90;;;;;;5042472;28;20029;-73
2024/03/03 04:07:04;;;;;;;60.83;57.27;;;6.80;99.90;;;;;;5038945;28;20049;-73
2024/03/03 04:09:31;;;;;;;65.43;61.50;;;6.80;99.90;;;;;;5036963;28;20040;-74
2024/03/03 04:11:58;;;;;;;86.83;81.70;;;6.80;99.90;;;;;;5047908;28;20483;-73
2024/03/03 04:14:25;;;;;;;74.63;69.97;;;6.80;99.90;;;;;;5053885;28;20040;-74
2024/03/03 04:16:51;;;;;;;58.23;54.60;;;6.80;99.90;;;;;;5052532;28;20057;-73
2024/03/03 04:19:17;;;;;;;67.93;63.63;;;6.80;99.90;;;;;;5054856;28;20052;-73
2024/03/03 04:21:43;;;;;;;58.03;54.70;;;6.70;99.90;;;;;;5052291;28;20040;-74
2024/03/03 04:24:10;;;;;;;56.47;52.77;;;6.70;99.90;;;;;;5054770;28;20041;-73
2024/03/03 04:26:39;;;;;;;81.83;77.07;;;6.70;99.90;;;;;;5054966;28;20052;-73
2024/03/03 04:29:06;;;;;;;96.23;90.73;;;6.70;99.90;;;;;;5053585;28;20049;-72
2024/03/03 04:31:33;;;;;;;63.47;59.87;;;6.70;99.90;;;;;;5044279;28;20040;-72
2024/03/03 04:33:59;;;;;;;59.50;56.00;;;6.70;99.90;;;;;;5050568;28;20045;-73
2024/03/03 04:36:25;;;;;;;65.83;61.93;;;6.70;99.90;;;;;;5051307;28;20037;-74
2024/03/03 04:38:51;;;;;;;95.73;90.30;;;6.70;99.90;;;;;;5054253;28;20037;-73
2024/03/03 04:41:19;;;;;;;72.13;68.07;;;6.60;99.90;;;;;;5054162;28;20044;-73
2024/03/03 04:43:48;;;;;;;51.67;48.53;;;6.60;99.90;;;;;;5052676;28;20052;-73
2024/03/03 04:46:14;;;;;;;47.17;44.40;;;6.60;99.90;;;;;;5053901;28;20048;-73
2024/03/03 04:48:40;;;;;;;49.67;46.63;;;6.60;99.90;;;;;;5039562;28;20056;-74
2024/03/03 04:51:07;;;;;;;70.03;65.93;;;6.60;99.90;;;;;;5041125;28;20056;-73
2024/03/03 04:53:33;;;;;;;77.47;72.83;;;6.60;99.90;;;;;;5041185;28;20375;-73
2024/03/03 04:55:59;;;;;;;74.40;70.10;;;6.60;99.90;;;;;;5041041;28;20042;-73
2024/03/03 04:58:26;;;;;;;50.10;46.63;;;6.50;99.90;;;;;;5043034;28;20032;-73
2024/03/03 05:00:52;;;;;;;44.67;41.77;;;6.50;99.90;;;;;;5045604;28;20487;-73
2024/03/03 05:03:18;;;;;;;46.30;42.97;;;6.40;99.90;;;;;;5040337;28;20041;-73
2024/03/03 05:05:44;;;;;;;44.77;42.07;;;6.50;99.90;;;;;;5039054;28;20501;-73
2024/03/03 05:08:10;;;;;;;48.73;45.80;;;6.40;99.90;;;;;;5054545;28;20049;-73
2024/03/03 05:10:36;;;;;;;64.30;60.37;;;6.40;99.90;;;;;;5054022;28;20036;-73
2024/03/03 05:13:02;;;;;;;48.03;45.20;;;6.40;99.90;;;;;;5050804;28;20036;-73
2024/03/03 05:15:29;;;;;;;56.03;52.57;;;6.40;99.90;;;;;;5053604;28;20403;-73
2024/03/03 05:17:55;;;;;;;528.83;98.47;;;6.40;99.90;;;;;;5054551;28;20041;-73
2024/03/03 05:20:21;;;;;;;76.67;72.20;;;6.30;99.90;;;;;;5054057;28;20036;-73
2024/03/03 05:22:47;;;;;;;111.13;64.77;;;6.30;99.90;;;;;;5052834;28;20074;-73
2024/03/03 05:25:13;;;;;;;685.53;100.17;;;6.30;99.90;;;;;;5053903;28;20037;-73
2024/03/03 05:27:39;;;;;;;69.17;64.83;;;6.30;99.90;;;;;;5053367;28;20045;-73
2024/03/03 05:30:06;;;;;;;56.77;53.33;;;6.30;99.90;;;;;;5058024;28;20033;-72
2024/03/03 05:32:32;;;;;;;189.30;75.53;;;6.30;99.90;;;;;;5045299;28;20041;-73
2024/03/03 05:34:59;;;;;;;59.40;55.67;;;6.30;99.90;;;;;;5045015;28;20029;-73
2024/03/03 05:37:25;;;;;;;66.10;62.00;;;6.20;99.90;;;;;;5053490;28;20041;-73
2024/03/03 05:39:51;;;;;;;64.43;60.60;;;6.20;99.90;;;;;;5041990;28;20044;-73
2024/03/03 05:42:17;;;;;;;66.10;62.13;;;6.20;99.90;;;;;;5046671;28;20555;-72
2024/03/03 05:44:43;;;;;;;257.80;76.13;;;6.20;99.90;;;;;;5039648;28;20487;-73
2024/03/03 05:47:09;;;;;;;65.23;59.13;;;6.20;99.90;;;;;;5052263;28;20051;-73
2024/03/03 05:49:38;;;;;;;92.93;85.97;;;6.10;99.90;;;;;;5042535;28;20025;-71
2024/03/03 05:52:04;;;;;;;70.80;66.10;;;6.10;99.90;;;;;;5036931;28;20029;-73
2024/03/03 05:54:30;;;;;;;72.73;67.43;;;6.10;99.90;;;;;;5035585;28;20502;-73
2024/03/03 05:56:56;;;;;;;99.27;93.63;;;6.10;99.90;;;;;;5047784;28;20040;-73
2024/03/03 05:59:22;;;;;;;100.13;94.33;;;6.10;99.90;;;;;;5049662;28;20032;-72
2024/03/03 06:01:49;;;;;;;1373.37;153.17;;;6.10;99.90;;;;;;5039478;28;20041;-73
2024/03/03 06:04:18;;;;;;;56.43;51.60;;;6.00;99.90;;;;;;5033440;28;20026;-73
2024/03/03 06:06:45;;;;;;;62.30;58.30;;;6.00;99.90;;;;;;5042511;28;20044;-73
2024/03/03 06:09:12;;;;;;;68.53;64.23;;;6.00;99.90;;;;;;5031688;28;20041;-72
2024/03/03 06:11:40;;;;;;;54.20;50.83;;;6.10;99.90;;;;;;5043723;28;20048;-73
2024/03/03 06:14:09;;;;;;;71.40;67.43;;;6.10;99.90;;;;;;5052318;28;20048;-72
2024/03/03 06:16:37;;;;;;;591.23;112.23;;;6.10;99.90;;;;;;5051282;28;20052;-73
2024/03/03 06:19:03;;;;;;;85.80;76.83;;;6.10;99.90;;;;;;5053238;28;20025;-72
2024/03/03 06:21:29;;;;;;;60.97;57.40;;;6.00;99.90;;;;;;5053266;28;20025;-72
2024/03/03 06:23:58;;;;;;;50.07;47.07;;;6.00;99.90;;;;;;5053491;28;20387;-73
2024/03/03 06:26:32;;;;;;;53.27;49.73;;;6.00;99.90;;;;;;5052763;28;20017;-73
2024/03/03 06:28:58;;;;;;;56.40;52.77;;;6.00;99.90;;;;;;5048099;28;20392;-72
2024/03/03 06:31:24;;;;;;;65.97;61.10;;;5.90;99.90;;;;;;5051010;28;20029;-73
2024/03/03 06:33:51;;;;;;;61.60;58.00;;;5.90;99.90;;;;;;5052906;28;20029;-72
2024/03/03 06:36:20;;;;;;;63.97;59.93;;;5.80;99.90;;;;;;5035166;28;20034;-73
2024/03/03 06:38:46;;;;;;;73.30;68.77;;;5.80;99.90;;;;;;5038337;28;20048;-73
2024/03/03 06:41:13;;;;;;;68.43;64.30;;;5.70;99.90;;;;;;5052676;28;20506;-73
2024/03/03 06:43:43;;;;;;;63.00;59.47;;;5.70;99.90;;;;;;5050510;28;20037;-73
2024/03/03 06:46:10;;;;;;;68.07;64.20;;;5.70;99.90;;;;;;5052355;28;20044;-72
2024/03/03 06:48:39;;;;;;;298.27;103.37;;;5.80;99.90;;;;;;5052033;28;20041;-73
2024/03/03 06:51:05;;;;;;;470.27;108.00;;;5.80;99.90;;;;;;5052132;28;20037;-73
2024/03/03 06:53:36;;;;;;;56.30;52.90;;;5.80;99.90;;;;;;5052744;28;20486;-72
2024/03/03 06:56:02;;;;;;;60.22;56.50;;;5.80;99.90;;;;;;5051388;28;20027;-73
2024/03/03 06:58:28;;;;;;;51.87;48.60;;;5.80;99.90;;;;;;5052126;28;20051;-72
2024/03/03 07:00:54;;;;;;;65.73;60.93;;;5.70;99.90;;;;;;5051938;28;20032;-72
2024/03/03 07:03:53;;;;;;;62.07;58.37;;;5.70;99.90;;;;;;5043546;28;20044;-72
2024/03/03 07:06:15;;;;;;;65.27;61.40;;;5.60;99.90;;;;;;5041382;28;20037;-78
2024/03/03 07:08:41;;;;;;;65.90;61.67;;;5.60;99.90;;;;;;5051798;28;20041;-77
2024/03/03 07:11:07;;;;;;;52.67;49.27;;;5.60;99.90;;;;;;5068947;28;20032;-78
2024/03/03 07:13:33;;;;;;;63.70;58.17;;;5.60;99.90;;;;;;5067598;28;20037;-78
2024/03/03 07:15:59;;;;;;;59.77;56.07;;;5.50;99.90;;;;;;5052042;28;20030;-78
2024/03/03 07:18:25;;;;;;;54.67;51.23;;;5.50;99.90;;;;;;5051488;28;20376;-78
2024/03/03 07:20:51;;;;;;;62.73;58.73;;;5.50;99.90;;;;;;5052228;28;20021;-77
2024/03/03 07:23:17;;;;;;;71.90;64.10;;;5.50;99.90;;;;;;5052038;28;20021;-78
2024/03/03 07:25:44;;;;;;;68.67;64.57;;;5.50;99.90;;;;;;5050712;28;20033;-78
2024/03/03 07:28:10;;;;;;;85.03;80.30;;;5.50;99.90;;;;;;5032182;28;20034;-77
2024/03/03 07:30:36;;;;;;;111.83;105.47;;;5.60;99.90;;;;;;5031665;28;20412;-78
2024/03/03 07:33:02;;;;;;;58.63;54.93;;;5.60;99.90;;;;;;5014137;28;20041;-78
2024/03/03 07:35:28;;;;;;;56.40;52.83;;;5.60;99.90;;;;;;5034518;28;20468;-78
2024/03/03 07:37:54;;;;;;;73.70;69.60;;;5.60;99.90;;;;;;5051595;28;20041;-78
2024/03/03 07:40:20;;;;;;;120.07;108.73;;;5.60;99.90;;;;;;5044740;28;20036;-79
2024/03/03 07:42:47;;;;;;;101.13;95.27;;;5.70;99.90;;;;;;5035380;28;20072;-79
2024/03/03 07:45:13;;;;;;;72.20;67.90;;;5.60;99.90;;;;;;5031654;28;20021;-78
2024/03/03 07:47:39;;;;;;;74.20;70.07;;;5.70;99.90;;;;;;5048674;28;20044;-78
2024/03/03 07:50:06;;;;;;;678.17;149.67;;;5.70;99.90;;;;;;5024035;28;20040;-79
2024/03/03 07:52:32;;;;;;;89.23;84.17;;;5.80;99.90;;;;;;5048488;28;20048;-79
2024/03/03 07:54:58;;;;;;;55.90;52.37;;;6.10;99.90;;;;;;5032594;28;20032;-78
2024/03/03 07:57:24;;;;;;;91.27;83.37;;;6.50;99.90;;;;;;5051624;28;20040;-79
2024/03/03 07:59:50;;;;;;;357.58;84.90;;;7.00;99.90;;;;;;5047233;28;20040;-79
2024/03/03 08:02:16;;;;;;;69.00;64.25;;;7.50;99.90;;;;;;5032300;28;20395;-78
2024/03/03 08:04:42;;;;;;;66.18;62.38;;;7.90;99.90;;;;;;5047065;28;20041;-78
2024/03/03 08:07:08;;;;;;;63.40;59.80;;;8.10;99.90;;;;;;5046824;28;20041;-78
2024/03/03 08:09:35;;;;;;;143.07;135.05;;;8.30;99.90;;;;;;5047243;28;20048;-79
2024/03/03 08:12:02;;;;;;;110.47;104.50;;;8.70;99.90;;;;;;5035919;28;20036;-79
2024/03/03 08:14:28;;;;;;;225.10;212.98;;;8.90;99.90;;;;;;5045904;28;20029;-79
2024/03/03 08:16:54;;;;;;;90.68;83.95;;;9.20;99.90;;;;;;5036457;28;20030;-78
2024/03/03 08:19:20;;;;;;;88.50;83.68;;;9.50;99.90;;;;;;5031767;28;20037;-79
2024/03/03 08:21:46;;;;;;;169.05;160.20;;;9.70;99.90;;;;;;5044280;28;20031;-79
2024/03/03 08:24:12;;;;;;;1999.90;999.90;;;9.90;99.90;;;;;;5051580;28;20056;-77
2024/03/03 08:26:38;;;;;;;153.30;145.20;;;9.80;99.90;;;;;;5054077;28;20025;-76
2024/03/03 08:29:05;;;;;;;167.73;159.10;;;10.00;99.90;;;;;;5042329;28;20376;-76
2024/03/03 08:31:33;;;;;;;1999.90;999.90;;;10.20;99.90;;;;;;5050479;28;20033;-76
2024/03/03 08:34:00;;;;;;;633.60;376.30;;;10.30;99.90;;;;;;5052146;28;20048;-77
2024/03/03 08:36:26;;;;;;;1999.90;999.90;;;10.50;99.90;;;;;;5053868;28;20403;-77
2024/03/03 08:38:52;;;;;;;1999.90;999.90;;;10.80;99.90;;;;;;5054484;28;20033;-77
2024/03/03 08:41:18;;;;;;;1999.90;999.90;;;10.90;99.90;;;;;;5047067;28;20517;-74
2024/03/03 08:43:44;;;;;;;1999.90;999.90;;;10.90;99.90;;;;;;5043800;28;20044;-80
2024/03/03 08:46:10;;;;;;;131.35;124.25;;;10.90;99.90;;;;;;5054820;28;20041;-78
2024/03/03 08:48:36;;;;;;;1999.90;999.90;;;10.80;99.90;;;;;;5041754;28;20049;-78
2024/03/03 08:51:07;;;;;;;99.28;93.93;;;10.70;99.90;;;;;;5041964;28;20047;-80
2024/03/03 08:53:33;;;;;;;1999.90;999.90;;;10.80;99.90;;;;;;5053867;28;20379;-79
2024/03/03 08:56:00;;;;;;;1999.90;999.90;;;10.80;99.90;;;;;;5046138;28;20581;-77
2024/03/03 08:58:26;;;;;;;1999.90;999.90;;;10.90;99.90;;;;;;5036583;28;20044;-72
2024/03/03 09:00:52;;;;;;;1999.90;999.90;;;11.10;99.90;;;;;;5039413;28;20033;-76
2024/03/03 09:03:18;;;;;;;1999.90;999.90;;;11.30;99.90;;;;;;5039707;28;20025;-80
2024/03/03 09:05:44;;;;;;;1999.90;999.90;;;11.30;99.90;;;;;;5043687;28;20022;-79
2024/03/03 09:08:10;;;;;;;1999.90;999.90;;;11.70;99.90;;;;;;5053242;28;20460;-78
2024/03/03 09:10:37;;;;;;;1999.90;999.90;;;11.60;99.90;;;;;;5054644;28;20025;-79
2024/03/03 09:13:03;;;;;;;1999.90;999.90;;;11.30;99.90;;;;;;5047978;28;20395;-79
2024/03/03 09:15:29;;;;;;;1999.90;999.90;;;11.50;99.90;;;;;;5056669;28;20036;-79
2024/03/03 09:17:56;;;;;;;1999.90;999.90;;;11.80;99.90;;;;;;5033146;28;20038;-79
2024/03/03 09:20:22;;;;;;;1999.90;999.90;;;12.00;99.90;;;;;;5034089;28;20475;-79
2024/03/03 09:22:48;;;;;;;1999.90;999.90;;;12.30;99.90;;;;;;5034455;28;20037;-79
2024/03/03 09:25:17;;;;;;;1999.90;999.90;;;12.50;99.90;;;;;;5034219;28;20419;-80
2024/03/03 09:27:43;;;;;;;1999.90;999.90;;;12.70;99.90;;;;;;5034117;28;20037;-80
2024/03/03 09:30:10;;;;;;;1999.90;999.90;;;12.80;99.90;;;;;;5034003;28;20022;-79
2024/03/03 09:32:36;;;;;;;1999.90;999.90;;;12.90;99.90;;;;;;5052894;28;20498;-79
2024/03/03 09:35:03;;;;;;;1999.90;999.90;;;12.60;99.90;;;;;;5051949;28;20037;-79
2024/03/03 09:37:29;;;;;;;1999.90;999.90;;;12.10;99.90;;;;;;5053174;28;20059;-78
2024/03/03 09:39:55;;;;;;;1999.90;999.90;;;11.40;99.90;;;;;;5043980;28;20033;-79
2024/03/03 09:42:22;;;;;;;1999.90;999.90;;;11.10;99.90;;;;;;5051646;28;20372;-80
2024/03/03 09:44:49;;;;;;;1999.90;999.90;;;11.30;99.90;;;;;;5048833;28;20033;-80
2024/03/03 09:47:15;;;;;;;1999.90;999.90;;;11.40;99.90;;;;;;5047506;28;20510;-80
2024/03/03 09:49:44;;;;;;;1999.90;999.90;;;11.80;99.90;;;;;;5032370;28;20029;-79
2024/03/03 09:52:12;;;;;;;1999.90;999.90;;;12.10;99.90;;;;;;5037815;28;20041;-79
2024/03/03 09:54:42;;;;;;;1999.90;999.90;;;12.20;99.90;;;;;;5034139;28;20036;-80
2024/03/03 09:57:11;;;;;;;1999.90;999.90;;;12.40;99.90;;;;;;5049217;28;20376;-80
2024/03/03 09:59:38;;;;;;;1999.90;999.90;;;12.70;99.90;;;;;;5052527;28;20040;-79
2024/03/03 10:02:04;;;;;;;1999.90;999.90;;;12.10;99.90;;;;;;5052992;28;20068;-79
2024/03/03 10:04:30;;;;;;;1999.90;999.90;;;12.10;99.90;;;;;;5053286;28;20025;-79
2024/03/03 10:06:56;;;;;;;1999.90;999.90;;;11.80;99.90;;;;;;5051854;28;20048;-79
2024/03/03 10:09:22;;;;;;;1999.90;999.90;;;11.50;99.90;;;;;;5052392;28;20037;-79
2024/03/03 10:11:48;;;;;;;1999.90;999.90;;;11.80;99.90;;;;;;5051619;28;20033;-79
2024/03/03 10:14:14;;;;;;;1999.90;999.90;;;12.20;99.90;;;;;;5052082;28;20040;-79
2024/03/03 10:16:40;;;;;;;1999.90;999.90;;;12.40;99.90;;;;;;5052660;28;20059;-79
2024/03/03 10:19:07;;;;;;;1999.90;999.90;;;12.30;99.90;;;;;;5050578;28;20048;-79
2024/03/03 10:21:37;;;;;;;1999.90;999.90;;;11.90;99.90;;;;;;5051573;28;20029;-79
2024/03/03 10:24:23;;;;;;;1999.90;999.90;;;11.40;99.90;;;;;;5052748;28;20395;-79
2024/03/03 10:26:53;;;;;;;1999.90;999.90;;;11.30;99.90;;;;;;5052678;28;20045;-79
2024/03/03 10:29:20;;;;;;;1999.90;999.90;;;11.30;99.90;;;;;;5053189;28;20124;-79
2024/03/03 10:31:49;;;;;;;1999.90;999.90;;;11.50;99.90;;;;;;5040722;28;20037;-79
2024/03/03 10:34:15;;;;;;;1999.90;999.90;;;11.70;99.90;;;;;;5043976;28;20040;-79
2024/03/03 10:36:42;;;;;;;1999.90;999.90;;;11.50;99.90;;;;;;5039632;28;20094;-79
2024/03/03 10:39:09;;;;;;;1999.90;999.90;;;11.40;99.90;;;;;;5047657;28;20467;-79
2024/03/03 10:41:38;;;;;;;1999.90;999.90;;;11.60;99.90;;;;;;5043827;28;20412;-79
2024/03/03 10:44:05;;;;;;;1999.90;999.90;;;12.00;99.90;;;;;;5052863;28;20045;-79
2024/03/03 10:46:31;;;;;;;1999.90;999.90;;;12.30;99.90;;;;;;5050052;28;20056;-79
2024/03/03 10:48:57;;;;;;;1999.90;999.90;;;12.50;99.90;;;;;;5052757;28;20036;-79
2024/03/03 10:51:24;;;;;;;1999.90;999.90;;;12.60;99.90;;;;;;5052524;28;20029;-79
2024/03/03 10:53:53;;;;;;;1999.90;999.90;;;12.80;99.90;;;;;;5051518;28;20360;-79
2024/03/03 10:56:20;;;;;;;1999.90;999.90;;;13.10;99.90;;;;;;5052327;28;20029;-81
2024/03/03 10:58:47;;;;;;;1999.90;999.90;;;12.90;99.90;;;;;;5050724;28;20041;-79
2024/03/03 11:01:14;;;;;;;1999.90;999.90;;;13.00;99.90;;;;;;5046050;28;20041;-73
2024/03/03 11:03:46;;;;;;;1999.90;999.90;;;13.20;99.90;;;;;;5038754;28;20530;-74
2024/03/03 11:06:12;;;;;;;1999.90;999.90;;;13.10;99.90;;;;;;5042566;28;20025;-74
2024/03/03 11:08:49;;;;;;;1999.90;999.90;;;12.60;99.90;;;;;;5030944;28;20052;-74
2024/03/03 11:11:18;;;;;;;1999.90;999.90;;;12.30;99.90;;;;;;5039982;28;20470;-76
2024/03/03 11:13:50;;;;;;;1999.90;999.90;;;12.50;99.90;;;;;;5049952;28;20025;-76
2024/03/03 11:16:16;;;;;;;1999.90;999.90;;;12.40;99.90;;;;;;5028794;28;20033;-74
2024/03/03 11:18:43;;;;;;;1999.90;999.90;;;12.50;99.90;;;;;;5041317;28;20426;-74
2024/03/03 11:21:09;;;;;;;1999.90;999.90;;;12.90;99.90;;;;;;5050435;28;20032;-74
2024/03/03 11:23:48;;;;;;;1999.90;999.90;;;13.20;99.90;;;;;;5048816;28;20395;-76
2024/03/03 11:26:31;;;;;;;1999.90;999.90;;;13.00;99.90;;;;;;5049504;28;20044;-76
2024/03/03 11:29:00;;;;;;;1999.90;999.90;;;12.50;99.90;;;;;;5042550;28;20033;-73
2024/03/03 11:31:27;;;;;;;1999.90;999.90;;;12.30;99.90;;;;;;5020134;28;20029;-73
2024/03/03 11:33:53;;;;;;;1999.90;999.90;;;12.40;99.90;;;;;;5040542;28;20040;-73
2024/03/03 11:36:20;;;;;;;1999.90;999.90;;;12.10;99.90;;;;;;5050550;28;20036;-73
2024/03/03 11:38:47;;;;;;;1999.90;999.90;;;11.80;99.90;;;;;;5050143;28;20037;-73
2024/03/03 11:41:14;;;;;;;1999.90;999.90;;;11.90;99.90;;;;;;5041293;28;20056;-73
2024/03/03 11:43:41;;;;;;;1999.90;999.90;;;11.70;99.90;;;;;;5036598;28;20050;-75
2024/03/03 11:46:10;;;;;;;1999.90;999.90;;;11.50;99.90;;;;;;5038299;28;20041;-74
2024/03/03 11:48:39;;;;;;;1999.90;999.90;;;11.90;99.90;;;;;;5049948;28;20045;-73
2024/03/03 11:51:28;;;;;;;1999.90;999.90;;;12.20;99.90;;;;;;5048545;28;20048;-73
2024/03/03 11:54:05;;;;;;;1999.90;999.90;;;12.50;99.90;;;;;;5039340;28;20037;-73
2024/03/03 11:56:46;;;;;;;1999.90;999.90;;;12.80;99.90;;;;;;5044762;28;20399;-73
2024/03/03 11:59:13;;;;;;;1999.90;999.90;;;12.80;99.90;;;;;;5039920;28;20480;-75
2024/03/03 12:01:49;;;;;;;1999.90;999.90;;;12.80;99.90;;;;;;5044998;28;20049;-75
2024/03/03 12:04:15;;;;;;;1999.90;999.90;;;12.90;99.90;;;;;;5053647;28;20029;-75
2024/03/03 12:06:45;;;;;;;1999.90;999.90;;;12.80;99.90;;;;;;5043508;28;20039;-75
2024/03/03 12:09:12;;;;;;;1999.90;999.90;;;12.40;99.90;;;;;;5035417;28;20377;-75
2024/03/03 12:11:39;;;;;;;1999.90;999.90;;;12.50;99.90;;;;;;5049676;28;20040;-75
2024/03/03 12:14:06;;;;;;;1999.90;999.90;;;12.70;99.90;;;;;;5025275;28;20494;-76
2024/03/03 12:16:32;;;;;;;1999.90;999.90;;;12.90;99.90;;;;;;5043899;28;20052;-76
2024/03/03 12:18:58;;;;;;;1999.90;999.90;;;12.80;99.90;;;;;;5035438;28;20028;-75
2024/03/03 12:21:24;;;;;;;1999.90;999.90;;;12.60;99.90;;;;;;5041651;28;20025;-76